sensor_id;sensor_type;location;lat;lon;timestamp;P1;durP1;ratioP1;P2;durP2;ratioP2
66597;SDS011;57424;53.128;6.406;2022-09-27T00:01:58;1.33;;;0.90;;
66597;SDS011;57424;53.128;6.406;2022-09-27T00:04:24;1.95;;;1.00;;
66597;SDS011;57424;53.128;6.406;2022-09-27T00:06:50;1.35;;;0.98;;
66597;SDS011;57424;53.128;6.406;2022-09-27T00:09:16;2.55;;;1.10;;
66597;SDS011;57424;53.128;6.406;2022-09-27T00:11:41;2.13;;;1.10;;
66597;SDS011;57424;53.128;6.406;2022-09-27T00:14:07;3.17;;;1.20;;
66597;SDS011;57424;53.128;6.406;2022-09-27T00:16:35;1.67;;;0.82;;
66597;SDS011;57424;53.128;6.406;2022-09-27T00:19:03;3.92;;;1.08;;
66597;SDS011;57424;53.128;6.406;2022-09-27T00:21:31;8.25;;;1.10;;
66597;SDS011;57424;53.128;6.406;2022-09-27T00:23:57;4.60;;;1.10;;
66597;SDS011;57424;53.128;6.406;2022-09-27T00:26:23;2.25;;;1.00;;
66597;SDS011;57424;53.128;6.406;2022-09-27T00:28:49;2.88;;;1.15;;
66597;SDS011;57424;53.128;6.406;2022-09-27T00:31:19;2.47;;;1.00;;
66597;SDS011;57424;53.128;6.406;2022-09-27T00:33:49;2.53;;;0.80;;
66597;SDS011;57424;53.128;6.406;2022-09-27T00:36:16;2.95;;;0.95;;
66597;SDS011;57424;53.128;6.406;2022-09-27T00:38:42;1.92;;;0.95;;
66597;SDS011;57424;53.128;6.406;2022-09-27T00:41:12;2.45;;;0.80;;
66597;SDS011;57424;53.128;6.406;2022-09-27T00:43:44;1.88;;;1.00;;
66597;SDS011;57424;53.128;6.406;2022-09-27T00:46:20;2.92;;;1.00;;
66597;SDS011;57424;53.128;6.406;2022-09-27T00:51:50;1.92;;;0.82;;
66597;SDS011;57424;53.128;6.406;2022-09-27T00:54:19;5.40;;;1.13;;
66597;SDS011;57424;53.128;6.406;2022-09-27T00:56:46;2.17;;;0.85;;
66597;SDS011;57424;53.128;6.406;2022-09-27T00:59:18;1.65;;;0.80;;
66597;SDS011;57424;53.128;6.406;2022-09-27T01:01:53;1.48;;;0.80;;
66597;SDS011;57424;53.128;6.406;2022-09-27T01:04:23;1.58;;;0.88;;
66597;SDS011;57424;53.128;6.406;2022-09-27T01:06:53;1.67;;;0.88;;
66597;SDS011;57424;53.128;6.406;2022-09-27T01:09:19;2.53;;;0.70;;
66597;SDS011;57424;53.128;6.406;2022-09-27T01:11:47;2.17;;;0.90;;
66597;SDS011;57424;53.128;6.406;2022-09-27T01:19:54;2.20;;;0.85;;
66597;SDS011;57424;53.128;6.406;2022-09-27T01:25:16;2.72;;;0.95;;
66597;SDS011;57424;53.128;6.406;2022-09-27T01:28:17;1.85;;;1.02;;
66597;SDS011;57424;53.128;6.406;2022-09-27T01:36:15;2.47;;;0.90;;
66597;SDS011;57424;53.128;6.406;2022-09-27T01:46:58;2.03;;;0.65;;
66597;SDS011;57424;53.128;6.406;2022-09-27T01:49:30;2.25;;;0.90;;
66597;SDS011;57424;53.128;6.406;2022-09-27T01:52:03;2.75;;;0.77;;
66597;SDS011;57424;53.128;6.406;2022-09-27T01:54:51;1.70;;;0.80;;
66597;SDS011;57424;53.128;6.406;2022-09-27T01:57:22;1.77;;;0.88;;
66597;SDS011;57424;53.128;6.406;2022-09-27T01:59:52;1.50;;;0.80;;
66597;SDS011;57424;53.128;6.406;2022-09-27T02:02:40;1.42;;;0.70;;
66597;SDS011;57424;53.128;6.406;2022-09-27T02:05:13;1.98;;;0.55;;
66597;SDS011;57424;53.128;6.406;2022-09-27T02:07:43;1.95;;;0.63;;
66597;SDS011;57424;53.128;6.406;2022-09-27T02:10:21;3.58;;;0.75;;
66597;SDS011;57424;53.128;6.406;2022-09-27T02:16:29;1.77;;;0.80;;
66597;SDS011;57424;53.128;6.406;2022-09-27T02:18:45;1.67;;;0.85;;
66597;SDS011;57424;53.128;6.406;2022-09-27T02:21:24;1.77;;;0.80;;
66597;SDS011;57424;53.128;6.406;2022-09-27T02:23:56;0.80;;;0.45;;
66597;SDS011;57424;53.128;6.406;2022-09-27T02:31:48;1.30;;;0.45;;
66597;SDS011;57424;53.128;6.406;2022-09-27T02:34:21;1.20;;;0.50;;
66597;SDS011;57424;53.128;6.406;2022-09-27T02:36:48;5.15;;;0.70;;
66597;SDS011;57424;53.128;6.406;2022-09-27T02:39:15;1.05;;;0.70;;
66597;SDS011;57424;53.128;6.406;2022-09-27T02:41:41;0.87;;;0.60;;
66597;SDS011;57424;53.128;6.406;2022-09-27T02:44:08;1.08;;;0.52;;
66597;SDS011;57424;53.128;6.406;2022-09-27T02:52:12;1.15;;;0.75;;
66597;SDS011;57424;53.128;6.406;2022-09-27T02:54:54;1.50;;;0.77;;
66597;SDS011;57424;53.128;6.406;2022-09-27T03:00:57;1.40;;;0.52;;
66597;SDS011;57424;53.128;6.406;2022-09-27T03:03:42;1.13;;;0.50;;
66597;SDS011;57424;53.128;6.406;2022-09-27T03:06:13;1.48;;;0.38;;
66597;SDS011;57424;53.128;6.406;2022-09-27T03:08:42;2.20;;;0.68;;
66597;SDS011;57424;53.128;6.406;2022-09-27T03:11:08;1.05;;;0.50;;
66597;SDS011;57424;53.128;6.406;2022-09-27T03:13:34;1.08;;;0.40;;
66597;SDS011;57424;53.128;6.406;2022-09-27T03:16:02;0.90;;;0.60;;
66597;SDS011;57424;53.128;6.406;2022-09-27T03:18:29;1.58;;;0.80;;
66597;SDS011;57424;53.128;6.406;2022-09-27T03:20:55;0.85;;;0.43;;
66597;SDS011;57424;53.128;6.406;2022-09-27T03:23:20;1.25;;;0.47;;
66597;SDS011;57424;53.128;6.406;2022-09-27T03:25:46;1.27;;;0.68;;
66597;SDS011;57424;53.128;6.406;2022-09-27T03:28:12;0.93;;;0.40;;
66597;SDS011;57424;53.128;6.406;2022-09-27T03:30:38;2.10;;;0.65;;
66597;SDS011;57424;53.128;6.406;2022-09-27T03:33:06;1.27;;;0.75;;
66597;SDS011;57424;53.128;6.406;2022-09-27T03:35:33;2.40;;;0.57;;
66597;SDS011;57424;53.128;6.406;2022-09-27T03:37:59;2.30;;;0.77;;
66597;SDS011;57424;53.128;6.406;2022-09-27T03:40:24;1.33;;;0.50;;
66597;SDS011;57424;53.128;6.406;2022-09-27T03:42:50;0.65;;;0.40;;
66597;SDS011;57424;53.128;6.406;2022-09-27T03:45:16;1.13;;;0.55;;
66597;SDS011;57424;53.128;6.406;2022-09-27T03:47:42;1.48;;;0.47;;
66597;SDS011;57424;53.128;6.406;2022-09-27T03:50:08;1.73;;;0.80;;
66597;SDS011;57424;53.128;6.406;2022-09-27T03:52:35;1.70;;;0.50;;
66597;SDS011;57424;53.128;6.406;2022-09-27T03:55:01;1.52;;;0.43;;
66597;SDS011;57424;53.128;6.406;2022-09-27T03:57:27;0.77;;;0.50;;
66597;SDS011;57424;53.128;6.406;2022-09-27T03:59:54;0.80;;;0.50;;
66597;SDS011;57424;53.128;6.406;2022-09-27T04:02:20;0.85;;;0.50;;
66597;SDS011;57424;53.128;6.406;2022-09-27T04:04:46;3.20;;;0.40;;
66597;SDS011;57424;53.128;6.406;2022-09-27T04:07:11;1.70;;;0.60;;
66597;SDS011;57424;53.128;6.406;2022-09-27T04:09:37;0.50;;;0.32;;
66597;SDS011;57424;53.128;6.406;2022-09-27T04:12:03;0.93;;;0.50;;
66597;SDS011;57424;53.128;6.406;2022-09-27T04:14:29;1.08;;;0.70;;
66597;SDS011;57424;53.128;6.406;2022-09-27T04:16:54;0.35;;;0.35;;
66597;SDS011;57424;53.128;6.406;2022-09-27T04:19:20;1.40;;;0.50;;
66597;SDS011;57424;53.128;6.406;2022-09-27T04:21:45;1.98;;;0.50;;
66597;SDS011;57424;53.128;6.406;2022-09-27T04:24:11;0.52;;;0.47;;
66597;SDS011;57424;53.128;6.406;2022-09-27T04:26:37;1.83;;;0.43;;
66597;SDS011;57424;53.128;6.406;2022-09-27T04:29:04;1.60;;;0.43;;
66597;SDS011;57424;53.128;6.406;2022-09-27T04:31:30;0.95;;;0.50;;
66597;SDS011;57424;53.128;6.406;2022-09-27T04:33:56;1.50;;;0.50;;
66597;SDS011;57424;53.128;6.406;2022-09-27T04:36:22;0.60;;;0.32;;
66597;SDS011;57424;53.128;6.406;2022-09-27T04:38:50;1.33;;;0.45;;
66597;SDS011;57424;53.128;6.406;2022-09-27T04:41:17;1.50;;;0.70;;
66597;SDS011;57424;53.128;6.406;2022-09-27T04:43:43;0.30;;;0.28;;
66597;SDS011;57424;53.128;6.406;2022-09-27T04:46:08;2.00;;;0.50;;
66597;SDS011;57424;53.128;6.406;2022-09-27T04:48:34;0.40;;;0.32;;
66597;SDS011;57424;53.128;6.406;2022-09-27T04:51:00;0.98;;;0.40;;
66597;SDS011;57424;53.128;6.406;2022-09-27T04:53:26;1.95;;;0.30;;
66597;SDS011;57424;53.128;6.406;2022-09-27T04:55:53;0.73;;;0.40;;
66597;SDS011;57424;53.128;6.406;2022-09-27T04:58:20;0.65;;;0.30;;
66597;SDS011;57424;53.128;6.406;2022-09-27T05:00:46;0.60;;;0.40;;
66597;SDS011;57424;53.128;6.406;2022-09-27T05:03:13;2.20;;;0.30;;
66597;SDS011;57424;53.128;6.406;2022-09-27T05:05:39;1.35;;;0.40;;
66597;SDS011;57424;53.128;6.406;2022-09-27T05:08:05;0.90;;;0.40;;
66597;SDS011;57424;53.128;6.406;2022-09-27T05:10:31;1.40;;;0.45;;
66597;SDS011;57424;53.128;6.406;2022-09-27T05:12:56;1.88;;;0.40;;
66597;SDS011;57424;53.128;6.406;2022-09-27T05:15:22;0.32;;;0.30;;
66597;SDS011;57424;53.128;6.406;2022-09-27T05:17:49;1.50;;;0.45;;
66597;SDS011;57424;53.128;6.406;2022-09-27T05:20:16;0.82;;;0.45;;
66597;SDS011;57424;53.128;6.406;2022-09-27T05:22:41;0.32;;;0.30;;
66597;SDS011;57424;53.128;6.406;2022-09-27T05:25:07;1.23;;;0.45;;
66597;SDS011;57424;53.128;6.406;2022-09-27T05:27:33;1.73;;;0.47;;
66597;SDS011;57424;53.128;6.406;2022-09-27T05:29:59;0.65;;;0.40;;
66597;SDS011;57424;53.128;6.406;2022-09-27T05:32:26;1.45;;;0.85;;
66597;SDS011;57424;53.128;6.406;2022-09-27T05:34:52;1.10;;;0.35;;
66597;SDS011;57424;53.128;6.406;2022-09-27T05:37:18;0.43;;;0.30;;
66597;SDS011;57424;53.128;6.406;2022-09-27T05:39:44;0.47;;;0.43;;
66597;SDS011;57424;53.128;6.406;2022-09-27T05:42:10;1.02;;;0.45;;
66597;SDS011;57424;53.128;6.406;2022-09-27T05:44:38;0.73;;;0.43;;
66597;SDS011;57424;53.128;6.406;2022-09-27T05:47:03;0.77;;;0.40;;
66597;SDS011;57424;53.128;6.406;2022-09-27T05:49:29;0.82;;;0.30;;
66597;SDS011;57424;53.128;6.406;2022-09-27T05:51:55;1.35;;;0.20;;
66597;SDS011;57424;53.128;6.406;2022-09-27T05:54:21;1.20;;;0.28;;
66597;SDS011;57424;53.128;6.406;2022-09-27T05:56:47;0.63;;;0.30;;
66597;SDS011;57424;53.128;6.406;2022-09-27T05:59:12;0.98;;;0.40;;
66597;SDS011;57424;53.128;6.406;2022-09-27T06:01:38;1.05;;;0.40;;
66597;SDS011;57424;53.128;6.406;2022-09-27T06:04:04;0.90;;;0.40;;
66597;SDS011;57424;53.128;6.406;2022-09-27T06:06:30;1.75;;;0.65;;
66597;SDS011;57424;53.128;6.406;2022-09-27T06:08:58;0.30;;;0.30;;
66597;SDS011;57424;53.128;6.406;2022-09-27T06:11:25;0.63;;;0.20;;
66597;SDS011;57424;53.128;6.406;2022-09-27T06:13:51;0.77;;;0.40;;
66597;SDS011;57424;53.128;6.406;2022-09-27T06:16:17;0.55;;;0.30;;
66597;SDS011;57424;53.128;6.406;2022-09-27T06:18:42;0.43;;;0.28;;
66597;SDS011;57424;53.128;6.406;2022-09-27T06:21:08;0.65;;;0.32;;
66597;SDS011;57424;53.128;6.406;2022-09-27T06:23:33;0.95;;;0.43;;
66597;SDS011;57424;53.128;6.406;2022-09-27T06:26:00;0.80;;;0.45;;
66597;SDS011;57424;53.128;6.406;2022-09-27T06:28:30;1.13;;;0.50;;
66597;SDS011;57424;53.128;6.406;2022-09-27T06:30:57;1.23;;;0.40;;
66597;SDS011;57424;53.128;6.406;2022-09-27T06:33:26;0.43;;;0.30;;
66597;SDS011;57424;53.128;6.406;2022-09-27T06:35:54;1.92;;;0.30;;
66597;SDS011;57424;53.128;6.406;2022-09-27T06:38:20;1.35;;;0.52;;
66597;SDS011;57424;53.128;6.406;2022-09-27T06:40:47;0.20;;;0.20;;
66597;SDS011;57424;53.128;6.406;2022-09-27T06:43:13;0.50;;;0.40;;
66597;SDS011;57424;53.128;6.406;2022-09-27T06:45:41;0.52;;;0.30;;
66597;SDS011;57424;53.128;6.406;2022-09-27T06:48:07;0.45;;;0.30;;
66597;SDS011;57424;53.128;6.406;2022-09-27T06:53:01;0.73;;;0.30;;
66597;SDS011;57424;53.128;6.406;2022-09-27T06:55:28;0.85;;;0.40;;
66597;SDS011;57424;53.128;6.406;2022-09-27T06:57:54;2.60;;;0.50;;
66597;SDS011;57424;53.128;6.406;2022-09-27T07:00:39;4.10;;;0.65;;
66597;SDS011;57424;53.128;6.406;2022-09-27T07:03:07;0.90;;;0.30;;
66597;SDS011;57424;53.128;6.406;2022-09-27T07:05:35;8.10;;;0.82;;
66597;SDS011;57424;53.128;6.406;2022-09-27T07:08:01;0.75;;;0.22;;
66597;SDS011;57424;53.128;6.406;2022-09-27T07:10:28;1.20;;;0.50;;
66597;SDS011;57424;53.128;6.406;2022-09-27T07:13:02;1.60;;;0.60;;
66597;SDS011;57424;53.128;6.406;2022-09-27T07:15:32;0.68;;;0.25;;
66597;SDS011;57424;53.128;6.406;2022-09-27T07:18:02;0.70;;;0.40;;
66597;SDS011;57424;53.128;6.406;2022-09-27T07:20:29;0.75;;;0.28;;
66597;SDS011;57424;53.128;6.406;2022-09-27T07:22:55;1.25;;;0.45;;
66597;SDS011;57424;53.128;6.406;2022-09-27T07:25:21;2.60;;;0.40;;
66597;SDS011;57424;53.128;6.406;2022-09-27T07:27:47;1.48;;;0.25;;
66597;SDS011;57424;53.128;6.406;2022-09-27T07:30:13;1.17;;;0.55;;
66597;SDS011;57424;53.128;6.406;2022-09-27T07:32:40;0.85;;;0.30;;
66597;SDS011;57424;53.128;6.406;2022-09-27T07:35:06;0.55;;;0.50;;
66597;SDS011;57424;53.128;6.406;2022-09-27T07:37:33;1.30;;;0.52;;
66597;SDS011;57424;53.128;6.406;2022-09-27T07:40:00;0.93;;;0.47;;
66597;SDS011;57424;53.128;6.406;2022-09-27T07:42:26;0.68;;;0.43;;
66597;SDS011;57424;53.128;6.406;2022-09-27T07:44:53;0.73;;;0.47;;
66597;SDS011;57424;53.128;6.406;2022-09-27T07:47:19;0.82;;;0.50;;
66597;SDS011;57424;53.128;6.406;2022-09-27T07:49:47;0.82;;;0.43;;
66597;SDS011;57424;53.128;6.406;2022-09-27T07:52:13;1.75;;;0.35;;
66597;SDS011;57424;53.128;6.406;2022-09-27T07:54:39;1.10;;;0.60;;
66597;SDS011;57424;53.128;6.406;2022-09-27T07:57:04;3.33;;;0.57;;
66597;SDS011;57424;53.128;6.406;2022-09-27T07:59:31;1.40;;;0.60;;
66597;SDS011;57424;53.128;6.406;2022-09-27T08:01:57;0.82;;;0.50;;
66597;SDS011;57424;53.128;6.406;2022-09-27T08:04:22;2.67;;;0.40;;
66597;SDS011;57424;53.128;6.406;2022-09-27T08:06:48;1.75;;;0.40;;
66597;SDS011;57424;53.128;6.406;2022-09-27T08:09:13;0.70;;;0.25;;
66597;SDS011;57424;53.128;6.406;2022-09-27T08:11:39;1.17;;;0.50;;
66597;SDS011;57424;53.128;6.406;2022-09-27T08:14:04;0.47;;;0.45;;
66597;SDS011;57424;53.128;6.406;2022-09-27T08:16:33;0.98;;;0.50;;
66597;SDS011;57424;53.128;6.406;2022-09-27T08:18:58;4.05;;;0.50;;
66597;SDS011;57424;53.128;6.406;2022-09-27T08:21:24;3.55;;;0.80;;
66597;SDS011;57424;53.128;6.406;2022-09-27T08:23:49;5.93;;;0.93;;
66597;SDS011;57424;53.128;6.406;2022-09-27T08:26:15;4.03;;;0.73;;
66597;SDS011;57424;53.128;6.406;2022-09-27T08:28:41;1.80;;;0.43;;
66597;SDS011;57424;53.128;6.406;2022-09-27T08:31:06;1.30;;;0.47;;
66597;SDS011;57424;53.128;6.406;2022-09-27T08:33:32;0.95;;;0.35;;
66597;SDS011;57424;53.128;6.406;2022-09-27T08:35:57;2.70;;;0.60;;
66597;SDS011;57424;53.128;6.406;2022-09-27T08:38:23;2.88;;;0.70;;
66597;SDS011;57424;53.128;6.406;2022-09-27T08:40:53;1.60;;;0.60;;
66597;SDS011;57424;53.128;6.406;2022-09-27T08:46:25;2.50;;;0.70;;
66597;SDS011;57424;53.128;6.406;2022-09-27T08:49:15;0.98;;;0.50;;
66597;SDS011;57424;53.128;6.406;2022-09-27T08:52:22;3.55;;;0.50;;
66597;SDS011;57424;53.128;6.406;2022-09-27T08:54:52;0.88;;;0.30;;
66597;SDS011;57424;53.128;6.406;2022-09-27T09:02:24;0.57;;;0.37;;
66597;SDS011;57424;53.128;6.406;2022-09-27T09:04:55;4.05;;;0.68;;
66597;SDS011;57424;53.128;6.406;2022-09-27T09:07:30;1.35;;;0.52;;
66597;SDS011;57424;53.128;6.406;2022-09-27T09:10:22;1.15;;;0.57;;
66597;SDS011;57424;53.128;6.406;2022-09-27T09:24:31;1.15;;;0.50;;
66597;SDS011;57424;53.128;6.406;2022-09-27T09:30:43;1.38;;;0.50;;
66597;SDS011;57424;53.128;6.406;2022-09-27T09:35:40;0.40;;;0.30;;
66597;SDS011;57424;53.128;6.406;2022-09-27T09:41:17;7.45;;;0.50;;
66597;SDS011;57424;53.128;6.406;2022-09-27T09:43:56;0.90;;;0.45;;
66597;SDS011;57424;53.128;6.406;2022-09-27T09:49:05;2.55;;;0.60;;
66597;SDS011;57424;53.128;6.406;2022-09-27T09:51:43;3.08;;;0.60;;
66597;SDS011;57424;53.128;6.406;2022-09-27T09:54:25;0.95;;;0.35;;
66597;SDS011;57424;53.128;6.406;2022-09-27T09:59:42;2.25;;;0.55;;
66597;SDS011;57424;53.128;6.406;2022-09-27T10:02:29;2.00;;;0.73;;
66597;SDS011;57424;53.128;6.406;2022-09-27T10:04:58;2.70;;;1.05;;
66597;SDS011;57424;53.128;6.406;2022-09-27T10:07:24;0.65;;;0.50;;
66597;SDS011;57424;53.128;6.406;2022-09-27T10:09:52;0.90;;;0.50;;
66597;SDS011;57424;53.128;6.406;2022-09-27T10:12:23;1.80;;;0.90;;
66597;SDS011;57424;53.128;6.406;2022-09-27T10:14:48;2.17;;;0.65;;
66597;SDS011;57424;53.128;6.406;2022-09-27T10:17:18;0.98;;;0.50;;
66597;SDS011;57424;53.128;6.406;2022-09-27T10:19:47;1.10;;;0.35;;
66597;SDS011;57424;53.128;6.406;2022-09-27T10:24:58;1.15;;;0.50;;
66597;SDS011;57424;53.128;6.406;2022-09-27T10:27:37;2.03;;;0.50;;
66597;SDS011;57424;53.128;6.406;2022-09-27T10:30:05;2.72;;;0.60;;
66597;SDS011;57424;53.128;6.406;2022-09-27T10:32:44;1.08;;;0.63;;
66597;SDS011;57424;53.128;6.406;2022-09-27T10:35:48;0.55;;;0.50;;
66597;SDS011;57424;53.128;6.406;2022-09-27T10:40:44;2.78;;;0.60;;
66597;SDS011;57424;53.128;6.406;2022-09-27T10:43:43;1.33;;;0.70;;
66597;SDS011;57424;53.128;6.406;2022-09-27T10:46:04;0.90;;;0.50;;
66597;SDS011;57424;53.128;6.406;2022-09-27T10:48:31;1.98;;;0.50;;
66597;SDS011;57424;53.128;6.406;2022-09-27T10:51:03;2.58;;;0.50;;
66597;SDS011;57424;53.128;6.406;2022-09-27T10:53:30;2.60;;;0.63;;
66597;SDS011;57424;53.128;6.406;2022-09-27T10:58:25;4.97;;;0.50;;
66597;SDS011;57424;53.128;6.406;2022-09-27T11:00:59;4.45;;;0.80;;
66597;SDS011;57424;53.128;6.406;2022-09-27T11:03:30;1.70;;;0.47;;
66597;SDS011;57424;53.128;6.406;2022-09-27T11:06:01;1.30;;;0.63;;
66597;SDS011;57424;53.128;6.406;2022-09-27T11:08:51;2.63;;;0.80;;
66597;SDS011;57424;53.128;6.406;2022-09-27T11:11:19;0.80;;;0.32;;
66597;SDS011;57424;53.128;6.406;2022-09-27T11:13:56;1.52;;;0.50;;
66597;SDS011;57424;53.128;6.406;2022-09-27T11:21:55;4.18;;;0.70;;
66597;SDS011;57424;53.128;6.406;2022-09-27T11:27:55;1.90;;;0.70;;
66597;SDS011;57424;53.128;6.406;2022-09-27T11:30:21;3.38;;;0.70;;
66597;SDS011;57424;53.128;6.406;2022-09-27T11:32:59;5.13;;;0.75;;
66597;SDS011;57424;53.128;6.406;2022-09-27T11:38:17;3.75;;;1.25;;
66597;SDS011;57424;53.128;6.406;2022-09-27T11:52:18;1.13;;;0.55;;
66597;SDS011;57424;53.128;6.406;2022-09-27T12:03:39;1.75;;;0.45;;
66597;SDS011;57424;53.128;6.406;2022-09-27T12:06:16;3.85;;;0.68;;
66597;SDS011;57424;53.128;6.406;2022-09-27T12:09:15;4.97;;;0.63;;
66597;SDS011;57424;53.128;6.406;2022-09-27T12:11:51;4.80;;;0.40;;
66597;SDS011;57424;53.128;6.406;2022-09-27T12:14:31;3.70;;;0.88;;
66597;SDS011;57424;53.128;6.406;2022-09-27T12:17:28;5.30;;;0.68;;
66597;SDS011;57424;53.128;6.406;2022-09-27T12:19:59;3.92;;;0.63;;
66597;SDS011;57424;53.128;6.406;2022-09-27T12:22:52;1.42;;;0.43;;
66597;SDS011;57424;53.128;6.406;2022-09-27T12:25:21;4.32;;;0.80;;
66597;SDS011;57424;53.128;6.406;2022-09-27T12:27:51;5.45;;;0.70;;
66597;SDS011;57424;53.128;6.406;2022-09-27T12:30:28;0.98;;;0.85;;
66597;SDS011;57424;53.128;6.406;2022-09-27T12:33:17;1.73;;;0.60;;
66597;SDS011;57424;53.128;6.406;2022-09-27T12:35:51;4.97;;;0.77;;
66597;SDS011;57424;53.128;6.406;2022-09-27T12:38:41;0.45;;;0.45;;
66597;SDS011;57424;53.128;6.406;2022-09-27T12:41:04;1.20;;;0.50;;
66597;SDS011;57424;53.128;6.406;2022-09-27T12:43:33;2.20;;;0.60;;
66597;SDS011;57424;53.128;6.406;2022-09-27T12:48:46;1.45;;;0.93;;
66597;SDS011;57424;53.128;6.406;2022-09-27T12:51:23;1.98;;;0.50;;
66597;SDS011;57424;53.128;6.406;2022-09-27T12:56:45;0.77;;;0.45;;
66597;SDS011;57424;53.128;6.406;2022-09-27T12:59:32;3.25;;;0.40;;
66597;SDS011;57424;53.128;6.406;2022-09-27T13:02:38;3.58;;;0.40;;
66597;SDS011;57424;53.128;6.406;2022-09-27T13:08:48;3.22;;;0.40;;
66597;SDS011;57424;53.128;6.406;2022-09-27T13:13:42;5.00;;;0.50;;
66597;SDS011;57424;53.128;6.406;2022-09-27T13:16:08;2.40;;;0.68;;
66597;SDS011;57424;53.128;6.406;2022-09-27T13:18:52;1.05;;;0.60;;
66597;SDS011;57424;53.128;6.406;2022-09-27T13:32:35;1.13;;;0.30;;
66597;SDS011;57424;53.128;6.406;2022-09-27T13:35:11;1.70;;;0.30;;
66597;SDS011;57424;53.128;6.406;2022-09-27T13:37:47;2.03;;;0.63;;
66597;SDS011;57424;53.128;6.406;2022-09-27T13:40:20;4.20;;;0.60;;
66597;SDS011;57424;53.128;6.406;2022-09-27T13:45:35;6.75;;;0.68;;
66597;SDS011;57424;53.128;6.406;2022-09-27T13:48:16;1.65;;;0.60;;
66597;SDS011;57424;53.128;6.406;2022-09-27T13:50:50;6.47;;;0.63;;
66597;SDS011;57424;53.128;6.406;2022-09-27T13:55:53;2.92;;;0.57;;
66597;SDS011;57424;53.128;6.406;2022-09-27T14:03:44;4.00;;;0.60;;
66597;SDS011;57424;53.128;6.406;2022-09-27T14:06:12;3.20;;;0.50;;
66597;SDS011;57424;53.128;6.406;2022-09-27T14:08:43;1.10;;;0.40;;
66597;SDS011;57424;53.128;6.406;2022-09-27T14:11:13;3.08;;;0.45;;
66597;SDS011;57424;53.128;6.406;2022-09-27T14:13:42;2.42;;;0.60;;
66597;SDS011;57424;53.128;6.406;2022-09-27T14:18:42;0.63;;;0.38;;
66597;SDS011;57424;53.128;6.406;2022-09-27T14:21:28;2.60;;;0.57;;
66597;SDS011;57424;53.128;6.406;2022-09-27T14:26:44;0.70;;;0.43;;
66597;SDS011;57424;53.128;6.406;2022-09-27T14:29:17;1.35;;;0.50;;
66597;SDS011;57424;53.128;6.406;2022-09-27T14:31:44;1.50;;;0.50;;
66597;SDS011;57424;53.128;6.406;2022-09-27T14:34:13;3.47;;;0.40;;
66597;SDS011;57424;53.128;6.406;2022-09-27T14:36:39;3.28;;;0.50;;
66597;SDS011;57424;53.128;6.406;2022-09-27T14:41:56;2.83;;;0.52;;
66597;SDS011;57424;53.128;6.406;2022-09-27T14:44:24;2.38;;;0.50;;
66597;SDS011;57424;53.128;6.406;2022-09-27T14:47:14;3.90;;;0.60;;
66597;SDS011;57424;53.128;6.406;2022-09-27T14:49:51;5.00;;;0.47;;
66597;SDS011;57424;53.128;6.406;2022-09-27T14:52:28;2.40;;;0.45;;
66597;SDS011;57424;53.128;6.406;2022-09-27T14:54:57;1.52;;;0.50;;
66597;SDS011;57424;53.128;6.406;2022-09-27T14:57:30;1.45;;;0.50;;
66597;SDS011;57424;53.128;6.406;2022-09-27T15:00:00;2.58;;;0.60;;
66597;SDS011;57424;53.128;6.406;2022-09-27T15:02:39;5.20;;;0.60;;
66597;SDS011;57424;53.128;6.406;2022-09-27T15:05:11;1.05;;;0.50;;
66597;SDS011;57424;53.128;6.406;2022-09-27T15:07:43;1.00;;;0.47;;
66597;SDS011;57424;53.128;6.406;2022-09-27T15:10:14;1.42;;;0.40;;
66597;SDS011;57424;53.128;6.406;2022-09-27T15:12:46;0.95;;;0.30;;
66597;SDS011;57424;53.128;6.406;2022-09-27T15:15:15;2.13;;;0.50;;
66597;SDS011;57424;53.128;6.406;2022-09-27T15:17:44;1.63;;;0.40;;
66597;SDS011;57424;53.128;6.406;2022-09-27T15:22:53;3.70;;;0.68;;
66597;SDS011;57424;53.128;6.406;2022-09-27T15:25:33;2.90;;;0.63;;
66597;SDS011;57424;53.128;6.406;2022-09-27T15:28:04;1.42;;;0.30;;
66597;SDS011;57424;53.128;6.406;2022-09-27T15:30:39;2.47;;;0.50;;
66597;SDS011;57424;53.128;6.406;2022-09-27T15:33:17;2.70;;;0.38;;
66597;SDS011;57424;53.128;6.406;2022-09-27T15:35:51;7.65;;;0.73;;
66597;SDS011;57424;53.128;6.406;2022-09-27T15:43:29;5.22;;;1.27;;
66597;SDS011;57424;53.128;6.406;2022-09-27T15:49:32;4.95;;;1.50;;
66597;SDS011;57424;53.128;6.406;2022-09-27T15:51:41;6.18;;;1.48;;
66597;SDS011;57424;53.128;6.406;2022-09-27T15:54:08;5.80;;;1.70;;
66597;SDS011;57424;53.128;6.406;2022-09-27T15:56:34;3.72;;;1.48;;
66597;SDS011;57424;53.128;6.406;2022-09-27T15:59:00;3.55;;;1.52;;
66597;SDS011;57424;53.128;6.406;2022-09-27T16:01:26;4.00;;;1.65;;
66597;SDS011;57424;53.128;6.406;2022-09-27T16:03:51;3.92;;;1.58;;
66597;SDS011;57424;53.128;6.406;2022-09-27T16:06:17;5.05;;;1.25;;
66597;SDS011;57424;53.128;6.406;2022-09-27T16:08:43;3.95;;;1.40;;
66597;SDS011;57424;53.128;6.406;2022-09-27T16:11:11;4.25;;;1.60;;
66597;SDS011;57424;53.128;6.406;2022-09-27T16:13:38;5.03;;;1.38;;
66597;SDS011;57424;53.128;6.406;2022-09-27T16:16:04;6.55;;;1.30;;
66597;SDS011;57424;53.128;6.406;2022-09-27T16:18:30;4.95;;;1.48;;
66597;SDS011;57424;53.128;6.406;2022-09-27T16:20:59;6.03;;;1.80;;
66597;SDS011;57424;53.128;6.406;2022-09-27T16:23:26;4.50;;;1.20;;
66597;SDS011;57424;53.128;6.406;2022-09-27T16:25:52;3.42;;;1.67;;
66597;SDS011;57424;53.128;6.406;2022-09-27T16:28:17;7.18;;;1.50;;
66597;SDS011;57424;53.128;6.406;2022-09-27T16:30:43;3.40;;;1.33;;
66597;SDS011;57424;53.128;6.406;2022-09-27T16:33:09;2.88;;;1.20;;
66597;SDS011;57424;53.128;6.406;2022-09-27T16:35:37;5.70;;;1.50;;
66597;SDS011;57424;53.128;6.406;2022-09-27T16:38:05;3.85;;;1.63;;
66597;SDS011;57424;53.128;6.406;2022-09-27T16:40:30;9.68;;;1.38;;
66597;SDS011;57424;53.128;6.406;2022-09-27T16:42:56;3.40;;;1.27;;
66597;SDS011;57424;53.128;6.406;2022-09-27T16:45:22;3.78;;;1.40;;
66597;SDS011;57424;53.128;6.406;2022-09-27T16:47:57;3.10;;;1.13;;
66597;SDS011;57424;53.128;6.406;2022-09-27T16:50:23;6.65;;;1.00;;
66597;SDS011;57424;53.128;6.406;2022-09-27T16:53:07;11.90;;;2.05;;
66597;SDS011;57424;53.128;6.406;2022-09-27T16:55:34;7.78;;;1.60;;
66597;SDS011;57424;53.128;6.406;2022-09-27T16:58:00;5.63;;;1.30;;
66597;SDS011;57424;53.128;6.406;2022-09-27T17:00:27;4.07;;;1.35;;
66597;SDS011;57424;53.128;6.406;2022-09-27T17:02:55;5.90;;;1.45;;
66597;SDS011;57424;53.128;6.406;2022-09-27T17:05:20;2.08;;;0.93;;
66597;SDS011;57424;53.128;6.406;2022-09-27T17:07:50;4.78;;;1.10;;
66597;SDS011;57424;53.128;6.406;2022-09-27T17:10:17;3.33;;;0.98;;
66597;SDS011;57424;53.128;6.406;2022-09-27T17:12:43;2.83;;;1.30;;
66597;SDS011;57424;53.128;6.406;2022-09-27T17:15:10;5.63;;;1.33;;
66597;SDS011;57424;53.128;6.406;2022-09-27T17:17:36;2.70;;;0.93;;
66597;SDS011;57424;53.128;6.406;2022-09-27T17:20:02;2.65;;;1.00;;
66597;SDS011;57424;53.128;6.406;2022-09-27T17:22:29;2.10;;;1.00;;
66597;SDS011;57424;53.128;6.406;2022-09-27T17:24:55;4.88;;;1.50;;
66597;SDS011;57424;53.128;6.406;2022-09-27T17:27:21;3.35;;;1.25;;
66597;SDS011;57424;53.128;6.406;2022-09-27T17:29:47;4.53;;;1.00;;
66597;SDS011;57424;53.128;6.406;2022-09-27T17:32:14;4.43;;;0.75;;
66597;SDS011;57424;53.128;6.406;2022-09-27T17:34:39;7.68;;;1.13;;
66597;SDS011;57424;53.128;6.406;2022-09-27T17:37:07;2.50;;;1.08;;
66597;SDS011;57424;53.128;6.406;2022-09-27T17:39:34;3.75;;;1.08;;
66597;SDS011;57424;53.128;6.406;2022-09-27T17:42:00;3.80;;;1.08;;
66597;SDS011;57424;53.128;6.406;2022-09-27T17:44:26;2.05;;;0.82;;
66597;SDS011;57424;53.128;6.406;2022-09-27T17:46:52;6.13;;;1.17;;
66597;SDS011;57424;53.128;6.406;2022-09-27T17:49:36;2.80;;;1.05;;
66597;SDS011;57424;53.128;6.406;2022-09-27T17:52:20;3.55;;;1.20;;
66597;SDS011;57424;53.128;6.406;2022-09-27T17:54:47;6.45;;;1.30;;
66597;SDS011;57424;53.128;6.406;2022-09-27T17:57:12;8.02;;;1.25;;